X  Close Metar Aviation Weather Data     EDDK Cologne Bonn Airport
Temperature
13°C Temperature
11°C Dewpoint
88% Humidity



Wind
8 KM/H
5 MPH
2 M/S
4 KTS



160°
SSE
Current Conditions

Clear Clear
Pressure 1028.78 (hPa) - 30.38 (inHg)
Visibility 6 (mile) - 9.7 (km)
Airport
Airport-code EDDK

Location: Cologne Bonn Airport
Distance: 56 (km)

Metar:
EDDK 122320Z AUTO 16004KT CAVOK 13/11 Q1029 NOSIG

Time: 2024-04-13 01:20 CEST